createdAt,value
2023-03-03T00:01:55.973Z,5.80
2023-03-03T00:04:53.763Z,5.90
2023-03-03T00:07:51.914Z,6.00
2023-03-03T00:10:50.280Z,6.00
2023-03-03T00:13:53.117Z,6.00
2023-03-03T00:16:51.326Z,6.00
2023-03-03T00:19:50.150Z,5.90
2023-03-03T00:22:47.919Z,6.00
2023-03-03T00:25:47.410Z,6.10
2023-03-03T00:28:49.438Z,6.20
2023-03-03T00:31:47.353Z,6.30
2023-03-03T00:34:46.634Z,6.30
2023-03-03T00:37:44.609Z,6.30
2023-03-03T00:40:42.754Z,6.40
2023-03-03T00:43:41.167Z,6.40
2023-03-03T00:46:39.049Z,6.50
2023-03-03T00:49:37.576Z,6.60
2023-03-03T00:52:40.415Z,6.60
2023-03-03T00:55:38.444Z,6.60
2023-03-03T00:58:36.172Z,6.60
2023-03-03T01:01:34.098Z,6.70
2023-03-03T01:04:31.991Z,6.80
2023-03-03T01:07:29.863Z,6.70
2023-03-03T01:10:30.407Z,6.70
2023-03-03T01:13:32.247Z,6.70
2023-03-03T01:16:30.062Z,6.70
2023-03-03T01:19:28.035Z,6.80
2023-03-03T01:22:25.808Z,6.80
2023-03-03T01:25:23.730Z,6.90
2023-03-03T01:28:21.534Z,7.00
2023-03-03T01:31:19.451Z,7.00
2023-03-03T01:34:17.313Z,7.00
2023-03-03T01:37:15.197Z,7.10
2023-03-03T01:40:20.729Z,7.10
2023-03-03T01:43:18.567Z,7.10
2023-03-03T01:46:34.589Z,7.10
2023-03-03T01:49:43.662Z,7.20
2023-03-03T01:52:45.312Z,7.30
2023-03-03T01:55:44.367Z,7.30
2023-03-03T01:58:47.396Z,7.40
2023-03-03T02:01:46.965Z,7.50
2023-03-03T02:04:44.974Z,7.60
2023-03-03T02:07:43.185Z,7.70
2023-03-03T02:10:41.669Z,7.80
2023-03-03T02:13:39.543Z,7.90
2023-03-03T02:16:37.385Z,8.10
2023-03-03T02:19:56.799Z,8.20
2023-03-03T02:23:00.818Z,8.30
2023-03-03T02:26:23.370Z,8.50
2023-03-03T02:29:21.005Z,8.60
2023-03-03T02:32:18.893Z,8.80
2023-03-03T02:35:33.690Z,8.90
2023-03-03T02:38:42.222Z,9.20
2023-03-03T02:41:59.757Z,9.30
2023-03-03T02:44:57.715Z,9.40
2023-03-03T02:47:55.486Z,9.60
2023-03-03T02:50:53.343Z,9.70
2023-03-03T02:53:51.396Z,9.90
2023-03-03T02:56:49.669Z,10.00
2023-03-03T02:59:47.461Z,10.20
2023-03-03T03:02:45.496Z,10.40
2023-03-03T03:05:43.242Z,10.70
2023-03-03T03:08:41.156Z,10.90
2023-03-03T03:11:39.345Z,11.20
2023-03-03T03:14:37.308Z,11.30
2023-03-03T03:17:35.384Z,11.50
2023-03-03T03:20:33.264Z,11.70
2023-03-03T03:23:30.932Z,11.80
2023-03-03T03:26:28.998Z,12.10
2023-03-03T03:29:26.804Z,12.30
2023-03-03T03:32:24.926Z,12.40
2023-03-03T03:35:22.682Z,12.50
2023-03-03T03:38:20.586Z,12.70
2023-03-03T03:41:18.313Z,12.70
2023-03-03T03:44:16.190Z,12.80
2023-03-03T03:47:13.942Z,12.90
2023-03-03T03:50:12.358Z,12.90
2023-03-03T03:53:10.193Z,13.00
2023-03-03T03:56:08.525Z,13.10
2023-03-03T03:59:07.790Z,13.10
2023-03-03T04:02:05.772Z,13.10
2023-03-03T04:05:04.200Z,13.10
2023-03-03T04:08:04.802Z,13.20
2023-03-03T04:11:02.685Z,13.20
2023-03-03T04:14:00.582Z,13.20
2023-03-03T04:16:58.332Z,13.30
2023-03-03T04:19:56.139Z,13.30
2023-03-03T04:22:53.911Z,13.40
2023-03-03T04:25:51.734Z,13.50
2023-03-03T04:28:49.424Z,13.60
2023-03-03T04:31:47.256Z,13.60
2023-03-03T04:34:47.345Z,13.70
2023-03-03T04:37:46.874Z,13.60
2023-03-03T04:40:44.828Z,13.70
2023-03-03T04:43:42.691Z,13.50
2023-03-03T04:46:40.480Z,13.40
2023-03-03T04:49:39.077Z,13.60
2023-03-03T04:52:37.164Z,13.70
2023-03-03T04:55:38.494Z,13.80
2023-03-03T04:58:36.278Z,14.00
2023-03-03T05:01:34.224Z,14.10
2023-03-03T05:04:32.283Z,14.10
2023-03-03T05:07:30.261Z,14.20
2023-03-03T05:10:28.087Z,14.40
2023-03-03T05:13:27.881Z,14.50
2023-03-03T05:16:25.956Z,14.50
2023-03-03T05:19:24.814Z,14.70
2023-03-03T05:22:22.606Z,15.00
2023-03-03T05:25:20.534Z,15.20
2023-03-03T05:28:19.196Z,15.20
2023-03-03T05:31:17.182Z,15.20
2023-03-03T05:34:15.013Z,15.50
2023-03-03T05:37:12.832Z,15.70
2023-03-03T05:40:11.271Z,15.60
2023-03-03T05:43:09.148Z,15.80
2023-03-03T05:46:06.899Z,15.90
2023-03-03T05:49:04.719Z,15.60
2023-03-03T05:52:02.868Z,15.50
2023-03-03T05:55:00.707Z,15.80
2023-03-03T05:57:58.548Z,16.10
2023-03-03T06:00:56.556Z,16.10
2023-03-03T06:03:54.336Z,15.60
2023-03-03T06:06:52.305Z,15.80
2023-03-03T06:09:50.176Z,16.10
2023-03-03T06:12:48.094Z,15.90
2023-03-03T06:15:45.926Z,16.10
2023-03-03T06:18:43.945Z,16.00
2023-03-03T06:21:42.608Z,16.00
2023-03-03T06:24:40.511Z,15.50
2023-03-03T06:27:38.285Z,15.50
2023-03-03T06:30:39.033Z,15.90
2023-03-03T06:33:37.042Z,15.80
2023-03-03T06:36:34.878Z,15.80
2023-03-03T06:39:32.705Z,15.90
2023-03-03T06:42:30.534Z,16.20
2023-03-03T06:45:28.493Z,16.20
2023-03-03T06:48:26.538Z,16.00
2023-03-03T06:51:30.432Z,16.00
2023-03-03T06:54:31.014Z,16.00
2023-03-03T06:57:31.389Z,16.00
2023-03-03T07:00:31.143Z,15.90
2023-03-03T07:03:35.008Z,16.00
2023-03-03T07:06:35.789Z,16.00
2023-03-03T07:09:33.574Z,15.90
2023-03-03T07:12:32.134Z,15.90
2023-03-03T07:15:35.330Z,16.00
2023-03-03T07:18:52.439Z,16.00
2023-03-03T07:21:53.405Z,15.90
2023-03-03T07:24:56.168Z,15.90
2023-03-03T07:27:58.985Z,15.90
2023-03-03T07:30:58.796Z,15.80
2023-03-03T07:33:58.891Z,15.80
2023-03-03T07:37:01.474Z,15.90
2023-03-03T07:40:03.481Z,16.00
2023-03-03T07:43:02.684Z,15.90
2023-03-03T07:46:29.472Z,15.90
2023-03-03T07:49:42.574Z,15.90
2023-03-03T07:52:44.128Z,15.80
2023-03-03T07:55:42.371Z,15.90
2023-03-03T07:58:42.532Z,15.90
2023-03-03T08:01:44.236Z,16.10
2023-03-03T08:04:45.044Z,16.10
2023-03-03T08:07:42.973Z,16.20
2023-03-03T08:10:57.437Z,16.30
2023-03-03T08:13:55.484Z,16.30
2023-03-03T08:16:53.231Z,16.10
2023-03-03T08:19:53.644Z,16.20
2023-03-03T08:22:51.366Z,16.20
2023-03-03T08:25:50.897Z,16.20
2023-03-03T08:28:48.826Z,16.20
2023-03-03T08:31:49.964Z,16.20
2023-03-03T08:34:47.743Z,16.00
2023-03-03T08:37:45.708Z,16.20
2023-03-03T08:40:44.094Z,16.20
2023-03-03T08:43:41.996Z,16.10
2023-03-03T08:46:39.847Z,16.10
2023-03-03T08:49:38.361Z,16.20
2023-03-03T08:52:36.196Z,16.30
2023-03-03T08:55:34.791Z,16.20
2023-03-03T08:58:47.236Z,16.20
2023-03-03T09:01:50.834Z,16.30
2023-03-03T09:04:48.635Z,16.20
2023-03-03T09:07:48.017Z,16.00
2023-03-03T09:10:45.783Z,15.90
2023-03-03T09:13:43.650Z,15.80
2023-03-03T09:16:46.663Z,15.80
2023-03-03T09:19:46.371Z,15.70
2023-03-03T09:22:46.309Z,15.60
2023-03-03T09:25:44.392Z,15.50
2023-03-03T09:28:42.914Z,15.60
2023-03-03T09:31:48.810Z,15.50
2023-03-03T09:34:48.362Z,15.60
2023-03-03T09:37:46.862Z,15.70
2023-03-03T09:41:12.464Z,15.70
2023-03-03T09:44:38.163Z,15.80
2023-03-03T09:47:59.632Z,15.90
2023-03-03T09:51:19.222Z,15.90
2023-03-03T09:54:27.557Z,16.00
2023-03-03T09:57:45.178Z,15.90
2023-03-03T10:00:59.989Z,15.70
2023-03-03T10:04:23.491Z,15.90
2023-03-03T10:07:43.446Z,15.90
2023-03-03T10:10:57.876Z,15.90
2023-03-03T10:14:19.250Z,15.90
2023-03-03T10:17:47.770Z,16.00
2023-03-03T10:21:15.145Z,16.00
2023-03-03T10:24:28.471Z,16.10
2023-03-03T10:27:51.292Z,16.00
2023-03-03T10:31:11.237Z,16.00
2023-03-03T10:34:32.785Z,16.10
2023-03-03T10:37:52.801Z,16.10
2023-03-03T10:41:12.392Z,16.10
2023-03-03T10:44:41.015Z,15.80
2023-03-03T10:48:00.539Z,15.50
2023-03-03T10:51:22.080Z,15.60
2023-03-03T10:54:43.156Z,15.30
2023-03-03T10:58:02.188Z,15.40
2023-03-03T11:01:12.711Z,15.00
2023-03-03T11:04:41.065Z,15.00
2023-03-03T11:07:56.926Z,14.60
2023-03-03T11:11:25.483Z,14.70
2023-03-03T11:14:32.989Z,14.90
2023-03-03T11:17:55.852Z,15.10
2023-03-03T11:21:14.870Z,15.20
2023-03-03T11:24:25.758Z,15.30
2023-03-03T11:27:45.247Z,15.30
2023-03-03T11:30:56.240Z,15.30
2023-03-03T11:34:17.088Z,15.40
2023-03-03T11:37:35.848Z,15.40
2023-03-03T11:40:47.831Z,15.30
2023-03-03T11:43:53.511Z,15.10
2023-03-03T11:47:00.356Z,15.10
2023-03-03T11:50:06.643Z,15.10
2023-03-03T11:53:26.116Z,14.90
2023-03-03T11:56:40.434Z,14.00
2023-03-03T11:59:49.747Z,13.40
2023-03-03T12:03:04.333Z,13.00
2023-03-03T12:06:15.272Z,12.50
2023-03-03T12:09:33.644Z,12.00
2023-03-03T12:12:42.529Z,11.90
2023-03-03T12:16:05.421Z,11.90
2023-03-03T12:19:25.896Z,12.00
2023-03-03T12:22:35.109Z,11.80
2023-03-03T12:25:52.230Z,11.60
2023-03-03T12:29:18.573Z,11.00
2023-03-03T12:32:50.229Z,10.50
2023-03-03T12:36:15.592Z,10.20
2023-03-03T12:39:34.954Z,10.00
2023-03-03T12:43:03.836Z,9.70
2023-03-03T12:46:28.603Z,9.80
2023-03-03T12:49:43.433Z,9.80
2023-03-03T12:53:13.656Z,9.70
2023-03-03T12:56:21.228Z,9.70
2023-03-03T12:59:34.116Z,9.50
2023-03-03T13:02:47.151Z,9.30
2023-03-03T13:06:01.295Z,9.20
2023-03-03T13:09:19.523Z,9.20
2023-03-03T13:12:35.849Z,9.10
2023-03-03T13:15:56.161Z,9.00
2023-03-03T13:19:05.167Z,9.00
2023-03-03T13:22:13.873Z,9.00
2023-03-03T13:25:44.783Z,9.00
2023-03-03T13:29:00.297Z,9.00
2023-03-03T13:32:04.203Z,9.10
2023-03-03T13:35:23.949Z,9.20
2023-03-03T13:38:26.491Z,9.20
2023-03-03T13:41:32.970Z,9.20
2023-03-03T13:44:41.294Z,9.30
2023-03-03T13:47:58.294Z,9.40
2023-03-03T13:51:00.446Z,9.40
2023-03-03T13:54:17.018Z,9.50
2023-03-03T13:57:32.817Z,9.60
2023-03-03T14:01:05.981Z,9.60
2023-03-03T14:04:13.953Z,9.70
2023-03-03T14:07:20.611Z,9.80
2023-03-03T14:10:29.796Z,9.90
2023-03-03T14:13:38.589Z,9.90
2023-03-03T14:16:48.064Z,10.00
2023-03-03T14:19:50.222Z,10.10
2023-03-03T14:22:58.748Z,10.20
2023-03-03T14:26:00.878Z,10.20
2023-03-03T14:29:33.230Z,10.10
2023-03-03T14:32:44.754Z,10.00
2023-03-03T14:35:50.431Z,9.90
2023-03-03T14:38:49.538Z,9.90
2023-03-03T14:41:47.636Z,9.40
2023-03-03T14:45:02.029Z,9.10
2023-03-03T14:48:06.543Z,9.00
2023-03-03T14:51:29.678Z,8.60
2023-03-03T14:54:31.057Z,8.50
2023-03-03T14:57:47.878Z,8.40
2023-03-03T15:00:45.658Z,8.40
2023-03-03T15:03:48.527Z,8.30
2023-03-03T15:06:50.382Z,8.20
2023-03-03T15:09:51.508Z,8.20
2023-03-03T15:12:49.430Z,8.30
2023-03-03T15:16:04.262Z,8.10
2023-03-03T15:19:18.724Z,8.10
2023-03-03T15:22:36.717Z,8.00
2023-03-03T15:25:49.704Z,8.10
2023-03-03T15:29:06.529Z,8.10
2023-03-03T15:32:24.774Z,8.20
2023-03-03T15:35:38.295Z,8.20
2023-03-03T15:38:49.562Z,8.20
2023-03-03T15:42:11.125Z,8.20
2023-03-03T15:45:40.983Z,8.20
2023-03-03T15:49:00.593Z,8.20
2023-03-03T15:52:36.009Z,8.00
2023-03-03T15:56:09.093Z,8.00
2023-03-03T15:59:31.829Z,8.10
2023-03-03T16:02:47.923Z,7.90
2023-03-03T16:05:54.865Z,7.50
2023-03-03T16:09:11.049Z,7.10
2023-03-03T16:12:22.447Z,7.10
2023-03-03T16:15:34.871Z,7.10
2023-03-03T16:19:04.612Z,6.70
2023-03-03T16:22:21.692Z,6.60
2023-03-03T16:25:35.072Z,6.70
2023-03-03T16:28:53.088Z,6.60
2023-03-03T16:31:58.728Z,6.80
2023-03-03T16:35:01.106Z,6.60
2023-03-03T16:38:03.180Z,6.40
2023-03-03T16:41:03.249Z,6.30
2023-03-03T16:44:21.567Z,6.30
2023-03-03T16:47:36.741Z,6.20
2023-03-03T16:50:45.512Z,6.00
2023-03-03T16:54:02.850Z,6.10
2023-03-03T16:57:11.722Z,6.10
2023-03-03T17:00:20.622Z,6.20
2023-03-03T17:03:49.473Z,6.20
2023-03-03T17:06:56.005Z,6.20
2023-03-03T17:10:06.624Z,6.30
2023-03-03T17:13:26.234Z,6.40
2023-03-03T17:16:55.308Z,6.50
2023-03-03T17:20:20.987Z,6.50
2023-03-03T17:23:35.744Z,6.50
2023-03-03T17:26:56.968Z,6.50
2023-03-03T17:30:05.504Z,6.60
2023-03-03T17:33:26.551Z,6.50
2023-03-03T17:36:46.165Z,6.40
2023-03-03T17:40:07.357Z,6.00
2023-03-03T17:43:22.578Z,6.00
2023-03-03T17:46:33.684Z,6.20
2023-03-03T17:50:02.244Z,6.30
2023-03-03T17:53:30.924Z,6.40
2023-03-03T17:56:51.902Z,6.60
2023-03-03T18:00:21.225Z,6.70
2023-03-03T18:03:51.453Z,6.60
2023-03-03T18:07:13.373Z,6.60
2023-03-03T18:10:40.098Z,6.60
2023-03-03T18:14:14.117Z,6.60
2023-03-03T18:17:37.521Z,6.50
2023-03-03T18:21:03.798Z,6.50
2023-03-03T18:24:32.232Z,6.40
2023-03-03T18:27:35.447Z,6.20
2023-03-03T18:30:57.150Z,6.10
2023-03-03T18:34:04.750Z,6.10
2023-03-03T18:37:09.293Z,6.00
2023-03-03T18:40:37.568Z,5.90
2023-03-03T18:43:53.134Z,5.90
2023-03-03T18:46:53.231Z,5.90
2023-03-03T18:50:02.194Z,5.80
2023-03-03T18:53:25.916Z,5.70
2023-03-03T18:56:48.401Z,5.70
2023-03-03T19:00:15.372Z,5.60
2023-03-03T19:03:34.008Z,5.50
2023-03-03T19:06:53.881Z,5.50
2023-03-03T19:09:57.739Z,5.40
2023-03-03T19:12:58.360Z,5.30
2023-03-03T19:16:00.175Z,5.30
2023-03-03T19:19:05.441Z,5.40
2023-03-03T19:22:25.521Z,5.30
2023-03-03T19:25:26.461Z,5.40
2023-03-03T19:28:44.176Z,5.30
2023-03-03T19:31:57.298Z,5.20
2023-03-03T19:35:05.033Z,5.30
2023-03-03T19:38:34.262Z,5.30
2023-03-03T19:41:56.545Z,5.30
2023-03-03T19:45:12.349Z,5.30
2023-03-03T19:48:37.048Z,5.00
2023-03-03T19:51:46.729Z,4.80
2023-03-03T19:55:03.440Z,4.90
2023-03-03T19:58:19.040Z,5.00
2023-03-03T20:01:25.578Z,5.10
2023-03-03T20:04:54.624Z,5.00
2023-03-03T20:08:03.277Z,5.00
2023-03-03T20:11:22.681Z,5.10
2023-03-03T20:14:46.590Z,5.10
2023-03-03T20:18:07.902Z,5.10
2023-03-03T20:21:16.987Z,5.00
2023-03-03T20:24:51.253Z,4.90
2023-03-03T20:28:12.287Z,5.00
2023-03-03T20:31:28.525Z,5.00
2023-03-03T20:34:53.605Z,4.80
2023-03-03T20:38:07.655Z,4.60
2023-03-03T20:41:29.499Z,4.50
2023-03-03T20:44:43.281Z,4.20
2023-03-03T20:47:57.111Z,4.10
2023-03-03T20:51:10.724Z,4.20
2023-03-03T20:54:37.095Z,4.30
2023-03-03T20:57:53.041Z,4.30
2023-03-03T21:01:04.766Z,4.30
2023-03-03T21:04:19.713Z,4.40
2023-03-03T21:07:26.785Z,4.40
2023-03-03T21:10:27.945Z,4.30
2023-03-03T21:13:34.821Z,4.40
2023-03-03T21:16:34.262Z,4.40
2023-03-03T21:19:35.370Z,4.40
2023-03-03T21:22:33.457Z,4.30
2023-03-03T21:25:48.500Z,4.20
2023-03-03T21:29:03.335Z,4.20
2023-03-03T21:32:06.319Z,4.20
2023-03-03T21:35:12.748Z,4.10
2023-03-03T21:38:10.703Z,4.10
2023-03-03T21:41:10.515Z,4.10
2023-03-03T21:44:33.867Z,4.10
2023-03-03T21:47:31.985Z,4.00
2023-03-03T21:50:32.927Z,4.00
2023-03-03T21:53:31.248Z,4.00
2023-03-03T21:56:29.139Z,3.90
2023-03-03T21:59:27.015Z,3.90
2023-03-03T22:02:24.758Z,3.80
2023-03-03T22:05:22.705Z,3.90
2023-03-03T22:08:23.276Z,4.00
2023-03-03T22:11:21.338Z,4.00
2023-03-03T22:14:19.195Z,4.10
2023-03-03T22:17:17.055Z,4.10
2023-03-03T22:20:15.872Z,4.00
2023-03-03T22:23:15.402Z,4.00
2023-03-03T22:26:13.229Z,4.00
2023-03-03T22:29:11.348Z,4.10
2023-03-03T22:32:09.165Z,4.00
2023-03-03T22:35:07.894Z,4.00
2023-03-03T22:38:05.695Z,4.00
2023-03-03T22:41:03.708Z,4.00
2023-03-03T22:44:01.576Z,4.00
2023-03-03T22:46:59.556Z,4.10
2023-03-03T22:49:57.253Z,4.20
2023-03-03T22:52:55.614Z,4.20
2023-03-03T22:55:54.032Z,4.20
2023-03-03T22:58:52.114Z,4.20
2023-03-03T23:01:49.810Z,4.20
2023-03-03T23:04:47.662Z,4.30
2023-03-03T23:07:45.453Z,4.30
2023-03-03T23:10:43.597Z,4.40
2023-03-03T23:13:41.385Z,4.30
2023-03-03T23:16:39.296Z,4.30
2023-03-03T23:19:37.130Z,4.30
2023-03-03T23:22:35.006Z,4.20
2023-03-03T23:25:36.087Z,4.20
2023-03-03T23:28:34.299Z,4.30
2023-03-03T23:31:32.428Z,4.30
2023-03-03T23:34:30.627Z,4.30
2023-03-03T23:37:28.460Z,4.40
2023-03-03T23:40:26.568Z,4.40
2023-03-03T23:43:24.381Z,4.30
2023-03-03T23:46:22.557Z,4.40
2023-03-03T23:49:20.434Z,4.40
2023-03-03T23:52:19.140Z,4.30
2023-03-03T23:55:18.486Z,4.40
2023-03-03T23:58:16.436Z,4.50
